Terminal Aerodrome Forecast
Issued by NWS

Home | Current Version | Previous Version | Text Only | Print | Product List | Glossary On
Versions: 1 2 3 4 5 6 7 8 9 10 11 12 13
000
FTUS41 KPBZ 292320
TAFBVI
TAF
KBVI 292320Z 3000/3024 VRB05KT P6SM BKN080
     FM301900 25008KT P6SM VCSH BKN050
      AMD NOT SKED 3002/3012=

USA.gov is the U.S. government's official web portal to all federal, state and local government web resources and services.